Airfield :
LOGIN :

Register | Disclaimer

   EN    FR    IT 

 










Legend :    VFR   Marginal VFR   IFR   Intensive IFR   Very Intensive IFR
Visi :
Ceiling :
>= 8 km
>= 3000ft
5 to 8 km
1000 to 3000 ft
1500m to 5 km
500 to 1000 ft
800 to 1500m
200 to 500 ft
< 800m
< 200 ft
Symbols :   Thunderstorms  Fog  Heavy snow  Heavy precipitations  Wind > 20 kt
SIGMETs :     Misc.  Thunderstorms  Icing  Turbulence  Mountain Waves  Volcanic Ashes






- Airport Elevation : 29 ft
- IATA code : SVG


ENZV - Sola

CURRENT METAR :
  • 181150Z 16012KT 9999 BKN015 13/11 Q1019 TEMPO BKN010

EXPIRED METARs :
  • 181120Z 16013KT 9999 VCSH FEW006 OVC022 13/11 Q1019 TEMPO BKN012
  • 181050Z 16013KT 9000 RADZ FEW007 BKN023 OVC029 12/11 Q1018 TEMPO 4000 RADZ BKN012
  • 181020Z 16014KT 7000 RA OVC020 13/11 Q1018 TEMPO 4000 RADZ BKN012
  • 180950Z 16013KT 9999 -DZ OVC022 13/11 Q1018 TEMPO 4000 RADZ BKN012
  • 180920Z 14016KT 5000 -RA FEW030 BKN040 14/10 Q1017 TEMPO 14018G28KT 4000 RADZ BKN012

TAF TAF ENZV
Valid from the 18 at 12:00 until the 19 at 12:00 UTC


1812/1912 19012KT 9999 FEW008 BKN020
TEMPO 1812/1813 4000 -RA BR BKN010
BECMG 1819/1821 VRB05KT
PROB30 1822/1904 0200 FG VV001
BECMG 1904/1906 17010KT
BECMG 1909/1912 4000 RADZ BKN007



MET'MAP, your aeronautical weather chart ! - Copyright ORBIFLY December 2007 - Disclaimer

ORBIFLY MET'MAP TEAM :

Programming & Development : Alexandra Zaïnal
Original concept : Baudouin d'Aumeries
Technical & hardware support : Manuel Goepfert
Assistance : Marc-Olivier Méhu

Contact : metmap@orbifly.com




SOURCES & CREDITS :

   NOAA